Terminal Aerodrome Forecast
Issued by NWS

Home | Current Version | Previous Version | Graphics & Text | Print | Product List | Glossary On
Versions: 1 2 3 4 5 6 7 8 9 10 11 12 13 14 15 16 17 18
000
FTUS41 KCLE 172300
TAFFDY
TAF
KFDY 172330Z 1800/1824 06004KT P6SM FEW030 BKN080
     FM180500 07004KT 4SM BR SCT018 BKN070
     FM180800 07004KT 2SM BR BKN007
     FM181400 08005KT 5SM BR BKN010
     FM181600 08006KT P6SM VCSH BKN025=

USA.gov is the U.S. government's official web portal to all federal, state and local government web resources and services.